createdAt,value
2018-03-26T00:00:22.182Z,0.00
2018-03-26T00:01:22.096Z,0.00
2018-03-26T00:02:22.042Z,0.00
2018-03-26T00:03:21.956Z,0.00
2018-03-26T00:04:21.903Z,0.00
2018-03-26T00:05:21.819Z,0.00
2018-03-26T00:06:21.749Z,0.00
2018-03-26T00:07:21.671Z,0.00
2018-03-26T00:08:21.592Z,0.00
2018-03-26T00:09:21.518Z,0.00
2018-03-26T00:10:21.459Z,0.00
2018-03-26T00:11:21.370Z,0.00
2018-03-26T00:12:21.304Z,0.00
2018-03-26T00:13:21.252Z,0.00
2018-03-26T00:14:21.186Z,0.00
2018-03-26T00:15:21.107Z,0.00
2018-03-26T00:16:21.017Z,0.00
2018-03-26T00:17:20.982Z,0.00
2018-03-26T00:18:20.892Z,0.00
2018-03-26T00:19:20.806Z,0.00
2018-03-26T00:20:20.749Z,0.00
2018-03-26T00:21:20.667Z,0.00
2018-03-26T00:22:20.606Z,0.00
2018-03-26T00:23:20.512Z,0.00
2018-03-26T00:24:20.456Z,0.00
2018-03-26T00:25:20.384Z,0.00
2018-03-26T00:26:20.316Z,0.00
2018-03-26T00:27:20.237Z,0.00
2018-03-26T00:28:20.156Z,0.00
2018-03-26T00:29:20.094Z,0.00
2018-03-26T00:30:20.015Z,0.00
2018-03-26T00:31:19.942Z,0.00
2018-03-26T00:32:19.888Z,0.00
2018-03-26T00:33:19.814Z,0.00
2018-03-26T00:34:19.764Z,0.00
2018-03-26T00:35:19.663Z,0.00
2018-03-26T00:36:19.603Z,0.00
2018-03-26T00:37:19.532Z,0.00
2018-03-26T00:38:19.494Z,0.00
2018-03-26T00:39:19.418Z,0.00
2018-03-26T00:40:19.310Z,0.00
2018-03-26T00:41:19.217Z,0.00
2018-03-26T00:42:19.140Z,0.00
2018-03-26T00:43:19.087Z,0.00
2018-03-26T00:44:19.021Z,0.00
2018-03-26T00:45:18.940Z,0.00
2018-03-26T00:46:18.881Z,0.00
2018-03-26T00:47:18.814Z,0.00
2018-03-26T00:48:18.736Z,0.00
2018-03-26T00:49:18.658Z,0.00
2018-03-26T00:50:18.586Z,0.00
2018-03-26T00:51:18.500Z,0.00
2018-03-26T00:52:18.442Z,0.00
2018-03-26T00:53:18.369Z,0.00
2018-03-26T00:54:18.301Z,0.00
2018-03-26T00:55:18.210Z,0.00
2018-03-26T00:56:18.147Z,0.00
2018-03-26T00:57:18.098Z,0.00
2018-03-26T00:58:17.996Z,0.00
2018-03-26T00:59:17.948Z,0.00
2018-03-26T01:00:17.852Z,0.00
2018-03-26T01:01:17.782Z,0.00
2018-03-26T01:02:17.775Z,0.00
2018-03-26T01:03:17.635Z,0.00
2018-03-26T01:04:17.627Z,0.00
2018-03-26T01:05:17.511Z,0.00
2018-03-26T01:06:17.425Z,0.00
2018-03-26T01:07:17.361Z,0.00
2018-03-26T01:08:17.303Z,0.00
2018-03-26T01:09:17.252Z,0.00
2018-03-26T01:10:17.124Z,0.00
2018-03-26T01:11:17.058Z,0.00
2018-03-26T01:12:16.983Z,0.00
2018-03-26T01:13:16.915Z,0.00
2018-03-26T01:14:16.858Z,0.00
2018-03-26T01:15:16.820Z,0.00
2018-03-26T01:16:16.714Z,0.00
2018-03-26T01:17:16.627Z,0.00
2018-03-26T01:18:16.593Z,0.00
2018-03-26T01:19:16.494Z,0.00
2018-03-26T01:20:16.411Z,0.00
2018-03-26T01:21:16.361Z,0.00
2018-03-26T01:22:16.281Z,0.00
2018-03-26T01:23:16.213Z,0.00
2018-03-26T01:24:16.142Z,0.00
2018-03-26T01:25:16.061Z,0.00
2018-03-26T01:26:15.994Z,0.00
2018-03-26T01:27:15.902Z,0.00
2018-03-26T01:28:15.835Z,0.00
2018-03-26T01:29:15.757Z,0.00
2018-03-26T01:30:15.700Z,0.00
2018-03-26T01:31:15.627Z,0.00
2018-03-26T01:32:15.562Z,0.00
2018-03-26T01:33:15.488Z,0.00
2018-03-26T01:34:15.426Z,0.00
2018-03-26T01:35:15.351Z,0.00
2018-03-26T01:36:15.264Z,0.00
2018-03-26T01:37:15.196Z,0.00
2018-03-26T01:38:15.126Z,0.00
2018-03-26T01:39:15.054Z,0.00
2018-03-26T01:40:14.973Z,0.00
2018-03-26T01:41:14.916Z,0.00
2018-03-26T01:42:14.835Z,0.00
2018-03-26T01:43:14.771Z,0.00
2018-03-26T01:44:14.702Z,0.00
2018-03-26T01:45:14.630Z,0.00
2018-03-26T01:46:14.537Z,0.00
2018-03-26T01:47:14.494Z,0.00
2018-03-26T01:48:14.393Z,0.00
2018-03-26T01:49:14.321Z,0.00
2018-03-26T01:50:14.251Z,0.00
2018-03-26T01:51:14.176Z,0.00
2018-03-26T01:52:14.121Z,0.00
2018-03-26T01:53:14.040Z,0.00
2018-03-26T01:54:13.956Z,0.00
2018-03-26T01:55:13.954Z,0.00
2018-03-26T01:56:13.813Z,0.00
2018-03-26T01:57:13.760Z,0.00
2018-03-26T01:58:13.671Z,0.00
2018-03-26T01:59:13.614Z,0.00
2018-03-26T02:00:13.542Z,0.00
2018-03-26T02:01:13.455Z,0.00
2018-03-26T02:02:13.379Z,0.00
2018-03-26T02:03:13.332Z,0.00
2018-03-26T02:04:13.235Z,0.00
2018-03-26T02:05:13.163Z,0.00
2018-03-26T02:06:13.091Z,0.00
2018-03-26T02:07:13.013Z,0.00
2018-03-26T02:08:12.977Z,0.00
2018-03-26T02:09:12.914Z,0.00
2018-03-26T02:10:12.806Z,0.00
2018-03-26T02:11:12.731Z,0.00
2018-03-26T02:12:12.663Z,0.00
2018-03-26T02:13:12.598Z,0.00
2018-03-26T02:14:12.524Z,0.00
2018-03-26T02:15:12.455Z,0.00
2018-03-26T02:16:12.388Z,0.00
2018-03-26T02:17:12.313Z,0.00
2018-03-26T02:18:12.253Z,0.00
2018-03-26T02:19:12.154Z,0.00
2018-03-26T02:20:12.119Z,0.00
2018-03-26T02:21:12.008Z,0.00
2018-03-26T02:22:11.947Z,0.00
2018-03-26T02:23:11.859Z,0.00
2018-03-26T02:24:11.810Z,0.00
2018-03-26T02:25:11.729Z,0.00
2018-03-26T02:26:11.664Z,0.00
2018-03-26T02:27:11.577Z,0.00
2018-03-26T02:28:11.520Z,0.00
2018-03-26T02:29:11.458Z,0.00
2018-03-26T02:30:11.366Z,0.00
2018-03-26T02:31:11.283Z,0.00
2018-03-26T02:32:11.234Z,0.00
2018-03-26T02:33:11.135Z,0.00
2018-03-26T02:34:11.089Z,0.00
2018-03-26T02:35:11.011Z,0.00
2018-03-26T02:36:10.919Z,0.00
2018-03-26T02:37:10.850Z,0.00
2018-03-26T02:38:10.793Z,0.00
2018-03-26T02:39:10.704Z,0.00
2018-03-26T02:40:10.637Z,0.00
2018-03-26T02:41:10.568Z,0.00
2018-03-26T02:42:10.506Z,0.00
2018-03-26T02:43:10.458Z,0.00
2018-03-26T02:44:10.364Z,0.00
2018-03-26T02:45:10.273Z,0.00
2018-03-26T02:46:10.216Z,0.00
2018-03-26T02:47:10.148Z,0.00
2018-03-26T02:48:10.051Z,0.00
2018-03-26T02:49:09.992Z,0.00
2018-03-26T02:50:09.940Z,0.00
2018-03-26T02:51:09.856Z,0.00
2018-03-26T02:52:09.766Z,0.00
2018-03-26T02:53:09.885Z,0.00
2018-03-26T02:54:09.620Z,0.00
2018-03-26T02:55:09.590Z,0.00
2018-03-26T02:56:09.474Z,0.00
2018-03-26T02:57:09.420Z,0.00
2018-03-26T02:58:09.343Z,0.00
2018-03-26T02:59:09.261Z,0.00
2018-03-26T03:00:09.187Z,0.00
2018-03-26T03:01:09.134Z,0.00
2018-03-26T03:02:09.041Z,0.00
2018-03-26T03:03:08.994Z,0.00
2018-03-26T03:04:08.927Z,0.00
2018-03-26T03:05:08.838Z,0.00
2018-03-26T03:06:08.771Z,0.00
2018-03-26T03:07:08.684Z,0.00
2018-03-26T03:08:08.611Z,0.00
2018-03-26T03:09:08.539Z,0.00
2018-03-26T03:10:08.478Z,0.00
2018-03-26T03:11:08.404Z,0.00
2018-03-26T03:12:08.336Z,0.00
2018-03-26T03:13:08.245Z,0.00
2018-03-26T03:14:08.171Z,0.00
2018-03-26T03:15:08.097Z,0.00
2018-03-26T03:16:08.024Z,0.00
2018-03-26T03:17:07.955Z,0.00
2018-03-26T03:18:07.887Z,0.00
2018-03-26T03:19:07.829Z,0.00
2018-03-26T03:20:07.739Z,0.00
2018-03-26T03:21:07.704Z,0.00
2018-03-26T03:22:07.616Z,0.00
2018-03-26T03:23:07.562Z,0.00
2018-03-26T03:24:07.477Z,0.00
2018-03-26T03:25:07.394Z,0.00
2018-03-26T03:26:07.315Z,0.00
2018-03-26T03:27:07.254Z,0.00
2018-03-26T03:28:07.184Z,0.00
2018-03-26T03:29:07.102Z,0.00
2018-03-26T03:30:07.018Z,0.00
2018-03-26T03:31:06.978Z,0.00
2018-03-26T03:32:06.877Z,0.00
2018-03-26T03:33:06.820Z,0.00
2018-03-26T03:34:06.743Z,0.00
2018-03-26T03:35:06.680Z,0.00
2018-03-26T03:36:06.591Z,0.00
2018-03-26T03:37:06.530Z,0.00
2018-03-26T03:38:06.472Z,0.00
2018-03-26T03:39:06.388Z,0.00
2018-03-26T03:40:06.313Z,0.00
2018-03-26T03:41:06.222Z,0.00
2018-03-26T03:42:06.156Z,0.00
2018-03-26T03:43:06.083Z,0.00
2018-03-26T03:44:06.009Z,0.00
2018-03-26T03:45:05.953Z,0.00
2018-03-26T03:46:05.869Z,0.00
2018-03-26T03:47:05.796Z,0.00
2018-03-26T03:48:05.723Z,0.00
2018-03-26T03:49:05.650Z,0.00
2018-03-26T03:50:05.580Z,0.00
2018-03-26T03:51:05.506Z,0.00
2018-03-26T03:52:05.442Z,0.00
2018-03-26T03:53:05.357Z,0.00
2018-03-26T03:54:05.287Z,0.00
2018-03-26T03:55:05.248Z,0.00
2018-03-26T03:56:05.146Z,0.00
2018-03-26T03:57:05.095Z,0.00
2018-03-26T03:58:05.030Z,0.00
2018-03-26T03:59:04.933Z,0.00
2018-03-26T04:00:04.899Z,0.00
2018-03-26T04:01:04.796Z,0.00
2018-03-26T04:02:04.728Z,0.00
2018-03-26T04:03:04.661Z,0.00
2018-03-26T04:04:04.584Z,0.00
2018-03-26T04:05:04.512Z,0.00
2018-03-26T04:06:04.442Z,0.00
2018-03-26T04:07:04.347Z,0.00
2018-03-26T04:08:04.283Z,0.00
2018-03-26T04:09:04.222Z,0.00
2018-03-26T04:10:04.133Z,0.00
2018-03-26T04:11:04.082Z,0.00
2018-03-26T04:12:03.993Z,0.00
2018-03-26T04:13:03.935Z,0.00
2018-03-26T04:14:03.849Z,0.00
2018-03-26T04:15:03.776Z,0.00
2018-03-26T04:16:03.731Z,0.00
2018-03-26T04:17:03.637Z,0.00
2018-03-26T04:18:03.590Z,0.00
2018-03-26T04:19:03.501Z,0.00
2018-03-26T04:20:03.447Z,0.00
2018-03-26T04:21:03.350Z,0.00
2018-03-26T04:22:03.269Z,0.00
2018-03-26T04:23:03.193Z,0.00
2018-03-26T04:24:03.126Z,0.00
2018-03-26T04:25:03.055Z,0.00
2018-03-26T04:26:02.996Z,0.00
2018-03-26T04:27:02.928Z,0.00
2018-03-26T04:28:02.842Z,0.00
2018-03-26T04:29:02.768Z,0.00
2018-03-26T04:30:02.712Z,0.00
2018-03-26T04:31:02.627Z,0.00
2018-03-26T04:32:02.585Z,0.00
2018-03-26T04:33:02.497Z,0.00
2018-03-26T04:34:02.428Z,0.00
2018-03-26T04:35:02.333Z,0.00
2018-03-26T04:36:02.261Z,0.00
2018-03-26T04:37:02.189Z,0.00
2018-03-26T04:38:02.137Z,0.00
2018-03-26T04:39:02.067Z,0.00
2018-03-26T04:40:01.994Z,0.00
2018-03-26T04:41:01.926Z,0.00
2018-03-26T04:42:01.855Z,0.00
2018-03-26T04:43:01.773Z,0.00
2018-03-26T04:44:01.707Z,0.00
2018-03-26T04:45:01.631Z,0.00
2018-03-26T04:46:01.580Z,0.00
2018-03-26T04:47:01.490Z,0.00
2018-03-26T04:48:01.395Z,0.00
2018-03-26T04:49:01.329Z,0.00
2018-03-26T04:50:01.257Z,0.00
2018-03-26T04:51:01.198Z,0.00
2018-03-26T04:52:01.128Z,0.00
2018-03-26T04:53:01.051Z,0.00
2018-03-26T04:54:00.964Z,0.00
2018-03-26T04:55:00.925Z,0.00
2018-03-26T04:56:00.833Z,0.00
2018-03-26T04:57:00.768Z,0.00
2018-03-26T04:58:00.696Z,0.00
2018-03-26T04:59:00.659Z,0.00
2018-03-26T05:00:00.537Z,0.00
2018-03-26T05:01:00.469Z,0.00
2018-03-26T05:02:00.413Z,0.00
2018-03-26T05:03:00.321Z,0.00
2018-03-26T05:04:00.251Z,0.00
2018-03-26T05:05:00.200Z,0.00
2018-03-26T05:06:00.097Z,0.00
2018-03-26T05:07:00.029Z,0.00
2018-03-26T05:07:59.980Z,0.00
2018-03-26T05:08:59.900Z,0.00
2018-03-26T05:09:59.829Z,0.00
2018-03-26T05:10:59.742Z,0.00
2018-03-26T05:11:59.670Z,0.00
2018-03-26T05:12:59.592Z,0.00
2018-03-26T05:13:59.516Z,0.00
2018-03-26T05:14:59.458Z,0.00
2018-03-26T05:15:59.378Z,0.00
2018-03-26T05:16:59.307Z,0.00
2018-03-26T05:17:59.259Z,0.00
2018-03-26T05:18:59.187Z,0.00
2018-03-26T05:19:59.106Z,0.00
2018-03-26T05:20:59.039Z,0.00
2018-03-26T05:21:58.947Z,0.00
2018-03-26T05:22:58.898Z,0.00
2018-03-26T05:23:58.823Z,0.00
2018-03-26T05:24:58.744Z,0.00
2018-03-26T05:25:58.656Z,0.00
2018-03-26T05:26:58.585Z,0.00
2018-03-26T05:27:58.521Z,0.00
2018-03-26T05:28:58.465Z,0.00
2018-03-26T05:29:58.371Z,0.00
2018-03-26T05:30:58.334Z,0.00
2018-03-26T05:31:58.222Z,0.00
2018-03-26T05:32:58.148Z,0.00
2018-03-26T05:33:58.075Z,0.00
2018-03-26T05:34:58.006Z,0.00
2018-03-26T05:35:57.948Z,0.00
2018-03-26T05:36:57.863Z,0.00
2018-03-26T05:37:57.803Z,0.00
2018-03-26T05:38:57.731Z,0.00
2018-03-26T05:39:57.672Z,0.00
2018-03-26T05:40:57.579Z,0.00
2018-03-26T05:41:57.520Z,0.00
2018-03-26T05:42:57.424Z,0.00
2018-03-26T05:43:57.385Z,0.00
2018-03-26T05:44:57.298Z,0.00
2018-03-26T05:45:57.215Z,0.00
2018-03-26T05:46:57.149Z,0.00
2018-03-26T05:47:57.079Z,0.00
2018-03-26T05:48:56.992Z,0.00
2018-03-26T05:49:56.938Z,0.00
2018-03-26T05:50:56.861Z,0.00
2018-03-26T05:51:56.798Z,0.00
2018-03-26T05:52:56.723Z,0.00
2018-03-26T05:53:56.641Z,0.00
2018-03-26T05:54:56.571Z,0.00
2018-03-26T05:55:56.509Z,5.63
2018-03-26T05:56:56.421Z,5.63
2018-03-26T05:57:56.361Z,5.63
2018-03-26T05:58:56.278Z,5.63
2018-03-26T05:59:56.211Z,5.63
2018-03-26T06:00:56.140Z,5.63
2018-03-26T06:01:56.063Z,11.25
2018-03-26T06:02:55.985Z,11.25
2018-03-26T06:03:55.906Z,11.25
2018-03-26T06:04:55.845Z,11.25
2018-03-26T06:05:55.785Z,11.25
2018-03-26T06:06:55.699Z,16.88
2018-03-26T06:07:55.629Z,16.88
2018-03-26T06:08:55.536Z,16.88
2018-03-26T06:09:55.464Z,22.50
2018-03-26T06:10:55.391Z,22.50
2018-03-26T06:11:55.321Z,22.50
2018-03-26T06:12:55.279Z,22.50
2018-03-26T06:13:55.190Z,28.13
2018-03-26T06:14:55.124Z,28.13
2018-03-26T06:15:55.061Z,28.13
2018-03-26T06:16:54.960Z,33.75
2018-03-26T06:17:54.899Z,33.75
2018-03-26T06:18:54.825Z,33.75
2018-03-26T06:19:54.760Z,39.38
2018-03-26T06:20:54.668Z,45.00
2018-03-26T06:21:54.617Z,45.00
2018-03-26T06:22:54.541Z,50.63
2018-03-26T06:23:54.465Z,50.63
2018-03-26T06:24:54.432Z,50.63
2018-03-26T06:25:54.310Z,56.25
2018-03-26T06:26:54.234Z,56.25
2018-03-26T06:27:54.158Z,61.88
2018-03-26T06:28:54.108Z,67.50
2018-03-26T06:29:54.029Z,73.13
2018-03-26T06:30:53.947Z,78.75
2018-03-26T06:31:53.885Z,84.38
2018-03-26T06:32:53.796Z,90.00
2018-03-26T06:33:53.724Z,90.00
2018-03-26T06:34:53.648Z,90.00
2018-03-26T06:35:53.611Z,95.63
2018-03-26T06:36:53.527Z,95.63
2018-03-26T06:37:53.432Z,101.25
2018-03-26T06:38:53.362Z,112.50
2018-03-26T06:39:53.301Z,112.50
2018-03-26T06:40:53.237Z,112.50
2018-03-26T06:41:53.154Z,118.13
2018-03-26T06:42:53.091Z,118.13
2018-03-26T06:43:53.021Z,123.75
2018-03-26T06:44:52.942Z,129.38
2018-03-26T06:45:52.856Z,135.00
2018-03-26T06:46:52.785Z,140.63
2018-03-26T06:47:52.716Z,140.63
2018-03-26T06:48:52.665Z,146.25
2018-03-26T06:49:52.591Z,146.25
2018-03-26T06:50:52.515Z,146.25
2018-03-26T06:51:52.434Z,146.25
2018-03-26T06:52:52.365Z,151.88
2018-03-26T06:53:52.303Z,157.50
2018-03-26T06:54:52.221Z,163.13
2018-03-26T06:55:52.146Z,168.75
2018-03-26T06:56:52.097Z,168.75
2018-03-26T06:57:52.032Z,174.38
2018-03-26T06:58:51.942Z,174.38
2018-03-26T06:59:51.859Z,185.63
2018-03-26T07:00:51.810Z,191.25
2018-03-26T07:01:51.722Z,196.88
2018-03-26T07:02:51.660Z,196.88
2018-03-26T07:03:51.611Z,202.50
2018-03-26T07:04:51.505Z,208.13
2018-03-26T07:05:51.436Z,208.13
2018-03-26T07:06:51.366Z,213.75
2018-03-26T07:07:51.318Z,219.38
2018-03-26T07:08:51.222Z,219.38
2018-03-26T07:09:51.158Z,219.38
2018-03-26T07:10:51.101Z,225.00
2018-03-26T07:11:51.032Z,230.63
2018-03-26T07:12:50.965Z,230.63
2018-03-26T07:13:50.877Z,230.63
2018-03-26T07:14:50.803Z,230.63
2018-03-26T07:15:50.733Z,230.63
2018-03-26T07:16:50.661Z,225.00
2018-03-26T07:17:50.588Z,225.00
2018-03-26T07:18:50.532Z,225.00
2018-03-26T07:19:50.460Z,230.63
2018-03-26T07:20:50.397Z,225.00
2018-03-26T07:21:50.333Z,225.00
2018-03-26T07:22:50.268Z,230.63
2018-03-26T07:23:50.191Z,236.25
2018-03-26T07:24:50.102Z,241.88
2018-03-26T07:25:50.048Z,241.88
2018-03-26T07:26:49.976Z,241.88
2018-03-26T07:27:49.918Z,253.13
2018-03-26T07:28:49.851Z,247.50
2018-03-26T07:29:49.748Z,253.13
2018-03-26T07:30:49.682Z,253.13
2018-03-26T07:31:49.627Z,258.75
2018-03-26T07:32:49.570Z,258.75
2018-03-26T07:33:49.470Z,270.00
2018-03-26T07:34:49.400Z,286.88
2018-03-26T07:35:49.349Z,292.50
2018-03-26T07:36:49.273Z,298.13
2018-03-26T07:37:49.196Z,298.13
2018-03-26T07:38:49.128Z,298.13
2018-03-26T07:39:49.064Z,303.75
2018-03-26T07:40:49.009Z,315.00
2018-03-26T07:41:48.939Z,320.63
2018-03-26T07:42:48.852Z,326.25
2018-03-26T07:43:48.802Z,320.63
2018-03-26T07:44:48.706Z,326.25
2018-03-26T07:45:48.658Z,331.88
2018-03-26T07:46:48.576Z,343.13
2018-03-26T07:47:48.506Z,331.88
2018-03-26T07:48:48.438Z,337.50
2018-03-26T07:49:48.369Z,331.88
2018-03-26T07:50:48.302Z,337.50
2018-03-26T07:51:48.264Z,343.13
2018-03-26T07:52:48.174Z,354.38
2018-03-26T07:53:48.090Z,331.88
2018-03-26T07:54:48.023Z,365.63
2018-03-26T07:55:47.972Z,360.00
2018-03-26T07:56:47.916Z,196.88
2018-03-26T07:57:47.816Z,174.38
2018-03-26T07:58:47.761Z,174.38
2018-03-26T07:59:47.688Z,174.38
2018-03-26T08:00:47.612Z,185.63
2018-03-26T08:01:47.570Z,196.88
2018-03-26T08:02:47.549Z,208.13
2018-03-26T08:03:47.406Z,213.75
2018-03-26T08:04:47.338Z,191.25
2018-03-26T08:05:47.271Z,168.75
2018-03-26T08:06:47.211Z,168.75
2018-03-26T08:07:47.126Z,163.13
2018-03-26T08:08:47.056Z,168.75
2018-03-26T08:09:46.984Z,191.25
2018-03-26T08:10:46.932Z,174.38
2018-03-26T08:11:46.846Z,196.88
2018-03-26T08:12:46.772Z,225.00
2018-03-26T08:13:46.716Z,180.00
2018-03-26T08:14:46.634Z,275.63
2018-03-26T08:15:46.589Z,208.13
2018-03-26T08:16:46.528Z,236.25
2018-03-26T08:17:46.448Z,376.88
2018-03-26T08:18:46.371Z,365.63
2018-03-26T08:19:46.286Z,360.00
2018-03-26T08:20:46.214Z,348.75
2018-03-26T08:21:46.144Z,337.50
2018-03-26T08:22:46.107Z,337.50
2018-03-26T08:23:46.056Z,343.13
2018-03-26T08:24:45.955Z,348.75
2018-03-26T08:25:45.912Z,348.75
2018-03-26T08:26:45.813Z,180.00
2018-03-26T08:27:45.730Z,281.25
2018-03-26T08:28:45.664Z,225.00
2018-03-26T08:29:45.612Z,337.50
2018-03-26T08:30:45.526Z,337.50
2018-03-26T08:31:45.475Z,337.50
2018-03-26T08:32:45.383Z,337.50
2018-03-26T08:33:45.348Z,337.50
2018-03-26T08:34:45.251Z,343.13
2018-03-26T08:35:45.176Z,337.50
2018-03-26T08:36:45.118Z,315.00
2018-03-26T08:37:45.036Z,343.13
2018-03-26T08:38:44.995Z,343.13
2018-03-26T08:39:44.912Z,326.25
2018-03-26T08:40:44.834Z,343.13
2018-03-26T08:41:44.783Z,309.38
2018-03-26T08:42:44.703Z,343.13
2018-03-26T08:43:44.653Z,343.13
2018-03-26T08:44:44.560Z,157.50
2018-03-26T08:45:44.508Z,331.88
2018-03-26T08:46:44.420Z,331.88
2018-03-26T08:47:44.369Z,326.25
2018-03-26T08:48:44.307Z,331.88
2018-03-26T08:49:44.319Z,331.88
2018-03-26T08:50:44.168Z,331.88
2018-03-26T08:51:44.098Z,286.88
2018-03-26T08:52:44.014Z,219.38
2018-03-26T08:53:43.946Z,320.63
2018-03-26T08:54:43.874Z,123.75
2018-03-26T08:55:43.814Z,196.88
2018-03-26T08:56:43.759Z,135.00
2018-03-26T08:57:43.662Z,129.38
2018-03-26T08:58:43.598Z,129.38
2018-03-26T08:59:43.526Z,180.00
2018-03-26T09:00:43.461Z,174.38
2018-03-26T09:01:43.386Z,247.50
2018-03-26T09:02:43.314Z,343.13
2018-03-26T09:03:43.252Z,315.00
2018-03-26T09:04:43.195Z,337.50
2018-03-26T09:05:43.146Z,360.00
2018-03-26T09:06:43.048Z,185.63
2018-03-26T09:07:42.972Z,225.00
2018-03-26T09:08:42.911Z,399.38
2018-03-26T09:09:42.834Z,388.13
2018-03-26T09:10:42.763Z,382.50
2018-03-26T09:11:42.700Z,354.38
2018-03-26T09:12:42.628Z,292.50
2018-03-26T09:13:42.577Z,348.75
2018-03-26T09:14:42.513Z,337.50
2018-03-26T09:15:42.422Z,326.25
2018-03-26T09:16:42.360Z,326.25
2018-03-26T09:17:42.282Z,326.25
2018-03-26T09:18:42.230Z,320.63
2018-03-26T09:19:42.142Z,320.63
2018-03-26T09:20:42.076Z,320.63
2018-03-26T09:21:42.001Z,320.63
2018-03-26T09:22:41.956Z,320.63
2018-03-26T09:23:41.881Z,326.25
2018-03-26T09:24:41.814Z,326.25
2018-03-26T09:25:41.733Z,337.50
2018-03-26T09:26:41.675Z,326.25
2018-03-26T09:27:41.607Z,331.88
2018-03-26T09:28:41.522Z,331.88
2018-03-26T09:29:41.481Z,326.25
2018-03-26T09:30:41.386Z,331.88
2018-03-26T09:31:41.362Z,225.00
2018-03-26T09:32:41.248Z,326.25
2018-03-26T09:33:41.198Z,326.25
2018-03-26T09:34:41.158Z,326.25
2018-03-26T09:35:41.064Z,185.63
2018-03-26T09:36:40.977Z,326.25
2018-03-26T09:37:40.923Z,146.25
2018-03-26T09:38:40.861Z,326.25
2018-03-26T09:39:40.787Z,320.63
2018-03-26T09:40:40.716Z,337.50
2018-03-26T09:41:40.634Z,326.25
2018-03-26T09:42:40.564Z,354.38
2018-03-26T09:43:40.492Z,348.75
2018-03-26T09:44:40.420Z,354.38
2018-03-26T09:45:40.354Z,360.00
2018-03-26T09:46:40.291Z,360.00
2018-03-26T09:47:40.247Z,382.50
2018-03-26T09:48:40.169Z,264.38
2018-03-26T09:49:40.101Z,337.50
2018-03-26T09:50:40.012Z,157.50
2018-03-26T09:51:39.976Z,337.50
2018-03-26T09:52:39.895Z,371.25
2018-03-26T09:53:39.823Z,343.13
2018-03-26T09:54:39.757Z,168.75
2018-03-26T09:55:39.672Z,275.63
2018-03-26T09:56:39.626Z,365.63
2018-03-26T09:57:39.547Z,168.75
2018-03-26T09:58:39.466Z,337.50
2018-03-26T09:59:39.407Z,247.50
2018-03-26T10:00:39.354Z,348.75
2018-03-26T10:01:39.277Z,163.13
2018-03-26T10:02:39.196Z,315.00
2018-03-26T10:03:39.143Z,151.88
2018-03-26T10:04:39.068Z,157.50
2018-03-26T10:05:39.005Z,309.38
2018-03-26T10:06:38.922Z,309.38
2018-03-26T10:07:38.863Z,315.00
2018-03-26T10:08:38.782Z,326.25
2018-03-26T10:09:38.719Z,315.00
2018-03-26T10:10:38.639Z,247.50
2018-03-26T10:11:38.593Z,360.00
2018-03-26T10:12:38.521Z,371.25
2018-03-26T10:13:38.455Z,253.13
2018-03-26T10:14:38.389Z,399.38
2018-03-26T10:15:38.339Z,393.75
2018-03-26T10:16:38.241Z,292.50
2018-03-26T10:17:38.177Z,382.50
2018-03-26T10:18:38.104Z,365.63
2018-03-26T10:19:38.030Z,348.75
2018-03-26T10:20:37.994Z,326.25
2018-03-26T10:21:37.914Z,309.38
2018-03-26T10:22:37.822Z,298.13
2018-03-26T10:23:37.763Z,292.50
2018-03-26T10:24:37.692Z,292.50
2018-03-26T10:25:37.622Z,298.13
2018-03-26T10:26:37.565Z,298.13
2018-03-26T10:27:37.482Z,298.13
2018-03-26T10:28:37.413Z,292.50
2018-03-26T10:29:37.369Z,298.13
2018-03-26T10:30:37.272Z,292.50
2018-03-26T10:31:37.208Z,258.75
2018-03-26T10:32:37.145Z,241.88
2018-03-26T10:33:37.091Z,281.25
2018-03-26T10:34:37.009Z,275.63
2018-03-26T10:35:36.949Z,258.75
2018-03-26T10:36:36.893Z,292.50
2018-03-26T10:37:36.807Z,270.00
2018-03-26T10:38:36.749Z,241.88
2018-03-26T10:39:36.685Z,202.50
2018-03-26T10:40:36.594Z,264.38
2018-03-26T10:41:36.526Z,264.38
2018-03-26T10:42:36.489Z,264.38
2018-03-26T10:43:36.411Z,258.75
2018-03-26T10:44:36.353Z,258.75
2018-03-26T10:45:36.277Z,258.75
2018-03-26T10:46:36.184Z,258.75
2018-03-26T10:47:36.136Z,253.13
2018-03-26T10:48:36.048Z,253.13
2018-03-26T10:49:35.982Z,258.75
2018-03-26T10:50:35.913Z,253.13
2018-03-26T10:51:35.848Z,247.50
2018-03-26T10:52:35.801Z,247.50
2018-03-26T10:53:35.708Z,247.50
2018-03-26T10:54:35.653Z,247.50
2018-03-26T10:55:35.566Z,247.50
2018-03-26T10:56:35.551Z,241.88
2018-03-26T10:57:35.448Z,241.88
2018-03-26T10:58:35.365Z,241.88
2018-03-26T10:59:35.312Z,236.25
2018-03-26T11:00:35.265Z,236.25
2018-03-26T11:01:35.165Z,236.25
2018-03-26T11:02:35.095Z,236.25
2018-03-26T11:03:35.016Z,236.25
2018-03-26T11:04:34.976Z,230.63
2018-03-26T11:05:34.882Z,230.63
2018-03-26T11:06:34.831Z,230.63
2018-03-26T11:07:34.740Z,230.63
2018-03-26T11:08:34.672Z,230.63
2018-03-26T11:09:34.604Z,230.63
2018-03-26T11:10:34.548Z,225.00
2018-03-26T11:11:34.469Z,225.00
2018-03-26T11:12:34.410Z,225.00
2018-03-26T11:13:34.336Z,225.00
2018-03-26T11:14:34.264Z,219.38
2018-03-26T11:15:34.202Z,219.38
2018-03-26T11:16:34.139Z,219.38
2018-03-26T11:17:34.074Z,219.38
2018-03-26T11:18:33.983Z,219.38
2018-03-26T11:19:33.934Z,219.38
2018-03-26T11:20:33.898Z,219.38
2018-03-26T11:21:33.776Z,213.75
2018-03-26T11:22:33.725Z,213.75
2018-03-26T11:23:33.642Z,213.75
2018-03-26T11:24:33.583Z,213.75
2018-03-26T11:25:33.511Z,208.13
2018-03-26T11:26:33.452Z,208.13
2018-03-26T11:27:33.381Z,208.13
2018-03-26T11:28:33.293Z,208.13
2018-03-26T11:29:33.222Z,208.13
2018-03-26T11:30:33.174Z,213.75
2018-03-26T11:31:33.099Z,213.75
2018-03-26T11:32:33.035Z,213.75
2018-03-26T11:33:33.011Z,208.13
2018-03-26T11:34:32.877Z,208.13
2018-03-26T11:35:32.837Z,202.50
2018-03-26T11:36:32.757Z,202.50
2018-03-26T11:37:32.675Z,196.88
2018-03-26T11:38:32.621Z,196.88
2018-03-26T11:39:32.526Z,196.88
2018-03-26T11:40:32.484Z,196.88
2018-03-26T11:41:32.387Z,196.88
2018-03-26T11:42:32.340Z,196.88
2018-03-26T11:43:32.254Z,196.88
2018-03-26T11:44:32.197Z,196.88
2018-03-26T11:45:32.129Z,202.50
2018-03-26T11:46:32.045Z,196.88
2018-03-26T11:47:31.992Z,196.88
2018-03-26T11:48:31.921Z,208.13
2018-03-26T11:49:31.868Z,196.88
2018-03-26T11:50:31.773Z,191.25
2018-03-26T11:51:31.695Z,191.25
2018-03-26T11:52:31.642Z,191.25
2018-03-26T11:53:31.570Z,191.25
2018-03-26T11:54:31.485Z,191.25
2018-03-26T11:55:31.437Z,191.25
2018-03-26T11:56:31.350Z,191.25
2018-03-26T11:57:31.309Z,191.25
2018-03-26T11:58:31.215Z,191.25
2018-03-26T11:59:31.171Z,191.25
2018-03-26T12:00:31.091Z,191.25
2018-03-26T12:01:31.008Z,191.25
2018-03-26T12:02:30.955Z,191.25
2018-03-26T12:03:30.880Z,191.25
2018-03-26T12:04:30.799Z,191.25
2018-03-26T12:05:30.760Z,196.88
2018-03-26T12:06:30.660Z,185.63
2018-03-26T12:07:30.607Z,185.63
2018-03-26T12:08:30.539Z,185.63
2018-03-26T12:09:30.456Z,185.63
2018-03-26T12:10:30.405Z,185.63
2018-03-26T12:11:30.317Z,185.63
2018-03-26T12:12:30.264Z,180.00
2018-03-26T12:13:30.193Z,185.63
2018-03-26T12:14:30.111Z,185.63
2018-03-26T12:15:30.039Z,180.00
2018-03-26T12:16:29.970Z,180.00
2018-03-26T12:17:29.895Z,174.38
2018-03-26T12:18:29.862Z,180.00
2018-03-26T12:19:29.785Z,174.38
2018-03-26T12:20:29.687Z,174.38
2018-03-26T12:21:29.641Z,174.38
2018-03-26T12:22:29.581Z,174.38
2018-03-26T12:23:29.502Z,180.00
2018-03-26T12:24:29.449Z,174.38
2018-03-26T12:25:29.363Z,174.38
2018-03-26T12:26:29.280Z,174.38
2018-03-26T12:27:29.247Z,174.38
2018-03-26T12:28:29.152Z,180.00
2018-03-26T12:29:29.095Z,174.38
2018-03-26T12:30:29.001Z,168.75
2018-03-26T12:31:28.927Z,163.13
2018-03-26T12:32:28.888Z,168.75
2018-03-26T12:33:28.792Z,168.75
2018-03-26T12:34:28.720Z,168.75
2018-03-26T12:35:28.655Z,168.75
2018-03-26T12:36:28.584Z,168.75
2018-03-26T12:37:28.515Z,168.75
2018-03-26T12:38:28.448Z,168.75
2018-03-26T12:39:28.374Z,151.88
2018-03-26T12:40:28.329Z,151.88
2018-03-26T12:41:28.233Z,157.50
2018-03-26T12:42:28.166Z,157.50
2018-03-26T12:43:28.108Z,157.50
2018-03-26T12:44:28.045Z,157.50
2018-03-26T12:45:27.968Z,157.50
2018-03-26T12:46:27.889Z,157.50
2018-03-26T12:47:27.841Z,151.88
2018-03-26T12:48:27.761Z,151.88
2018-03-26T12:49:27.693Z,157.50
2018-03-26T12:50:27.625Z,163.13
2018-03-26T12:51:27.557Z,157.50